Time;durP1;ratioP1;P1;durP2;ratioP2;P2;SDS_P1;SDS_P2;PMS_P1;PMS_P2;Temp;Humidity;BMP_temperature;BMP_pressure;BME280_temperature;BME280_humidity;BME280_pressure;Samples;Min_cycle;Max_cycle;Signal;HPM_P1;HPM_P2
2022/06/30 00:02:21;;;;;;;8.30;7.37;;;;;;;21.53;85.03;96337.92;1799322;79;20920;-85
2022/06/30 00:04:46;;;;;;;7.55;6.80;;;;;;;21.48;85.17;96329.96;1791798;77;20960;-86
2022/06/30 00:07:12;;;;;;;8.10;7.30;;;;;;;21.44;85.35;96330.17;1790541;79;20963;-86
2022/06/30 00:09:38;;;;;;;9.35;7.65;;;;;;;21.40;85.28;96321.95;1796231;77;21287;-86
2022/06/30 00:12:04;;;;;;;8.68;7.87;;;;;;;21.38;85.05;96317.44;1790347;79;20936;-85
2022/06/30 00:14:30;;;;;;;10.80;8.10;;;;;;;21.36;85.04;96314.78;1792079;77;20948;-86
2022/06/30 00:16:56;;;;;;;8.33;7.53;;;;;;;21.32;85.28;96315.81;1811142;79;20900;-86
2022/06/30 00:19:21;;;;;;;8.18;7.40;;;;;;;21.30;85.49;96309.95;1811270;77;20952;-86
2022/06/30 00:21:47;;;;;;;8.88;8.08;;;;;;;21.30;85.66;96308.64;1822392;79;21295;-85
2022/06/30 00:24:13;;;;;;;9.28;7.42;;;;;;;21.30;85.67;96300.70;1841284;77;21032;-86
2022/06/30 00:26:39;;;;;;;10.85;7.45;;;;;;;21.28;85.47;96307.56;1820868;77;20988;-85
2022/06/30 00:29:05;;;;;;;11.15;7.83;;;;;;;21.29;85.92;96305.72;1793253;77;21322;-85
2022/06/30 00:31:30;;;;;;;8.65;7.83;;;;;;;21.28;85.70;96306.25;1814473;77;20984;-85
2022/06/30 00:33:56;;;;;;;8.48;7.67;;;;;;;21.23;85.90;96298.78;1844342;77;20963;-85
2022/06/30 00:36:22;;;;;;;9.75;7.22;;;;;;;21.19;85.70;96301.12;1822448;77;21071;-85
2022/06/30 00:38:47;;;;;;;9.53;7.90;;;;;;;21.14;85.61;96294.45;1796240;77;20949;-85
2022/06/30 00:41:13;;;;;;;7.40;6.62;;;;;;;21.09;86.08;96290.98;1802030;77;20877;-84
2022/06/30 00:43:45;;;;;;;9.55;7.35;;;;;;;21.08;86.36;96282.78;1844888;77;21377;-86
2022/06/30 00:46:11;;;;;;;8.45;7.65;;;;;;;21.08;86.81;96283.58;1812767;77;21003;-86
2022/06/30 00:48:37;;;;;;;7.90;7.05;;;;;;;21.09;86.89;96287.81;1824735;77;20951;-86
2022/06/30 00:51:05;;;;;;;8.10;7.30;;;;;;;21.12;86.88;96287.83;1817898;77;21330;-85
2022/06/30 00:53:39;;;;;;;8.48;7.67;;;;;;;21.15;86.65;96292.61;1792274;78;20939;-86
2022/06/30 00:56:08;;;;;;;8.40;7.33;;;;;;;21.17;86.59;96289.22;1814088;77;21043;-85
2022/06/30 00:58:38;;;;;;;8.95;7.67;;;;;;;21.13;86.77;96292.86;1811320;77;21004;-85
2022/06/30 01:01:06;;;;;;;9.03;8.00;;;;;;;21.09;86.56;96289.66;1821906;77;20996;-84
2022/06/30 01:03:33;;;;;;;8.55;7.42;;;;;;;21.13;86.29;96290.75;1805454;77;21366;-85
2022/06/30 01:06:03;;;;;;;8.38;7.53;;;;;;;21.17;86.20;96284.73;1798934;77;21023;-86
2022/06/30 01:08:32;;;;;;;8.38;7.58;;;;;;;21.26;85.39;96287.20;1801038;78;20938;-85
2022/06/30 01:13:44;;;;;;;9.83;8.00;;;;;;;21.48;83.55;96284.50;1788693;79;21310;-89
2022/06/30 01:16:10;;;;;;;8.40;7.50;;;;;;;21.64;83.66;96280.61;1792861;79;20955;-85
2022/06/30 01:18:36;;;;;;;8.73;7.92;;;;;;;21.71;82.98;96282.01;1806158;78;20948;-85
2022/06/30 01:21:02;;;;;;;10.80;7.75;;;;;;;21.81;83.35;96276.00;1767153;79;20942;-85
2022/06/30 01:23:27;;;;;;;8.60;7.67;;;;;;;21.85;83.13;96279.19;1772570;78;20968;-86
2022/06/30 01:25:53;;;;;;;8.80;8.00;;;;;;;21.84;82.38;96278.92;1785877;79;21000;-85
2022/06/30 01:28:19;;;;;;;9.00;8.00;;;;;;;21.87;82.72;96278.94;1774345;80;20948;-86
2022/06/30 01:30:45;;;;;;;8.63;7.05;;;;;;;21.87;81.87;96281.58;1765328;79;21325;-85
2022/06/30 01:33:11;;;;;;;8.93;7.95;;;;;;;21.91;82.49;96280.54;1771565;78;21003;-85
2022/06/30 01:35:39;;;;;;;9.78;7.60;;;;;;;21.92;82.04;96276.31;1791390;77;21011;-86
2022/06/30 01:38:04;;;;;;;7.60;6.90;;;;;;;21.95;81.74;96273.67;1845518;77;21410;-86
2022/06/30 01:40:35;;;;;;;8.10;7.42;;;;;;;21.97;81.84;96278.21;1772571;79;21813;-84
2022/06/30 01:43:05;;;;;;;10.65;7.72;;;;;;;21.98;81.28;96275.83;1765106;79;21305;-85
2022/06/30 01:45:31;;;;;;;7.92;7.22;;;;;;;21.97;80.97;96275.56;1776027;79;21036;-86
2022/06/30 01:47:56;;;;;;;7.62;6.85;;;;;;;21.97;80.69;96272.92;1774527;79;20996;-86
2022/06/30 01:50:28;;;;;;;9.25;7.37;;;;;;;21.99;79.92;96274.78;1763934;79;21414;-86
2022/06/30 01:52:54;;;;;;;8.08;7.30;;;;;;;22.04;79.99;96276.13;1774401;80;20918;-86
2022/06/30 01:55:20;;;;;;;8.58;6.90;;;;;;;22.07;79.52;96275.63;1762591;79;21377;-85
2022/06/30 01:57:46;;;;;;;7.85;6.70;;;;;;;22.08;79.42;96278.02;1762558;79;21130;-85
2022/06/30 02:00:16;;;;;;;7.72;6.97;;;;;;;22.04;79.41;96266.86;1770810;80;21024;-86
2022/06/30 02:02:42;;;;;;;8.20;7.28;;;;;;;22.06;79.23;96272.19;1774677;79;21407;-86
2022/06/30 02:05:08;;;;;;;8.40;7.70;;;;;;;22.04;79.39;96274.80;1767998;79;20942;-85
2022/06/30 02:07:37;;;;;;;8.60;7.45;;;;;;;22.00;79.84;96267.11;1794062;79;20941;-85
2022/06/30 02:10:04;;;;;;;8.45;7.60;;;;;;;21.96;79.88;96271.30;1790489;80;21027;-86
2022/06/30 02:12:45;;;;;;;7.72;6.97;;;;;;;21.91;79.97;96266.78;1776469;79;20908;-86
2022/06/30 02:15:18;;;;;;;9.40;6.78;;;;;;;21.85;79.92;96259.88;1771941;79;20960;-85
2022/06/30 02:17:45;;;;;;;7.83;7.03;;;;;;;21.82;80.37;96261.20;1788023;79;20949;-86
2022/06/30 02:20:11;;;;;;;7.70;6.97;;;;;;;21.76;80.19;96254.79;1762621;80;21027;-85
2022/06/30 02:22:39;;;;;;;7.90;7.17;;;;;;;21.72;80.18;96253.72;1791404;79;20972;-84
2022/06/30 02:25:06;;;;;;;8.08;6.78;;;;;;;21.69;80.27;96253.70;1821929;77;21126;-84
2022/06/30 02:27:32;;;;;;;7.92;7.12;;;;;;;21.67;79.74;96258.45;1799909;79;20987;-85
2022/06/30 02:29:58;;;;;;;6.60;5.80;;;;;;;21.65;80.29;96259.23;1805102;78;20980;-85
2022/06/30 02:32:23;;;;;;;7.40;6.67;;;;;;;21.62;79.95;96260.25;1792387;77;21023;-85
2022/06/30 02:34:50;;;;;;;8.58;6.35;;;;;;;21.59;79.70;96256.27;1845940;77;21020;-85
2022/06/30 02:37:16;;;;;;;6.97;6.33;;;;;;;21.57;79.78;96258.37;1821394;77;21457;-85
2022/06/30 02:39:42;;;;;;;6.87;6.17;;;;;;;21.57;78.50;96257.84;1792488;79;21062;-86
2022/06/30 02:42:08;;;;;;;7.80;7.03;;;;;;;21.60;79.67;96251.78;1812348;77;20992;-85
2022/06/30 02:44:33;;;;;;;9.85;6.15;;;;;;;21.57;79.39;96257.05;1790403;79;20991;-85
2022/06/30 02:47:01;;;;;;;5.75;5.33;;;;;;;21.56;79.00;96253.61;1792448;77;21012;-85
2022/06/30 02:49:28;;;;;;;7.40;5.85;;;;;;;21.56;78.98;96257.58;1789984;79;20994;-85
2022/06/30 02:51:53;;;;;;;8.73;5.97;;;;;;;21.54;77.75;96261.00;1790791;77;20921;-86
2022/06/30 02:54:19;;;;;;;8.00;6.10;;;;;;;21.55;78.54;96263.91;1789270;77;20920;-85
2022/06/30 02:56:45;;;;;;;7.92;6.37;;;;;;;21.54;78.37;96259.69;1806821;79;21014;-86
2022/06/30 02:59:12;;;;;;;7.58;6.40;;;;;;;21.54;77.65;96262.85;1798915;77;21027;-85
2022/06/30 03:01:38;;;;;;;6.15;5.50;;;;;;;21.52;78.39;96265.75;1804208;79;20905;-86
2022/06/30 03:04:04;;;;;;;6.70;6.00;;;;;;;21.51;77.93;96264.69;1822677;77;21319;-86
2022/06/30 03:06:30;;;;;;;8.68;5.70;;;;;;;21.51;77.93;96269.97;1822292;79;21330;-86
2022/06/30 03:08:57;;;;;;;6.75;5.67;;;;;;;21.52;77.66;96279.50;1793489;77;20889;-85
2022/06/30 03:11:23;;;;;;;7.83;6.58;;;;;;;21.51;77.15;96285.31;1824296;77;21326;-86
2022/06/30 03:13:48;;;;;;;7.12;5.90;;;;;;;21.52;77.60;96286.90;1850789;77;20959;-85
2022/06/30 03:16:14;;;;;;;8.08;7.28;;;;;;;21.49;78.94;96292.70;1822310;77;20928;-86
2022/06/30 03:18:40;;;;;;;7.85;6.92;;;;;;;21.41;78.95;96297.11;1821905;78;20956;-86
2022/06/30 03:21:07;;;;;;;8.60;7.40;;;;;;;21.28;78.59;96302.80;1794639;78;20970;-86
2022/06/30 03:23:33;;;;;;;9.03;8.13;;;;;;;21.18;78.73;96315.92;1791121;77;21308;-86
2022/06/30 03:25:59;;;;;;;10.78;9.23;;;;;;;21.14;79.21;96326.69;1807059;79;21125;-86
2022/06/30 03:28:25;;;;;;;9.70;8.85;;;;;;;21.15;79.80;96333.56;1820415;77;21039;-85
2022/06/30 03:30:53;;;;;;;10.50;9.40;;;;;;;21.13;80.31;96331.70;1822684;78;20988;-85
2022/06/30 03:33:19;;;;;;;10.20;9.20;;;;;;;21.12;80.67;96340.15;1810851;78;21003;-85
2022/06/30 03:35:45;;;;;;;12.40;11.20;;;;;;;21.07;80.91;96345.91;1819572;78;21418;-86
2022/06/30 03:38:11;;;;;;;11.35;10.25;;;;;;;21.03;81.56;96357.51;1801778;79;20964;-86
2022/06/30 03:40:37;;;;;;;12.23;10.90;;;;;;;20.90;81.82;96356.56;1803870;77;20912;-86
2022/06/30 03:43:03;;;;;;;12.07;10.98;;;;;;;20.87;82.35;96361.82;1805827;77;21002;-86
2022/06/30 03:45:29;;;;;;;11.95;10.20;;;;;;;20.89;82.71;96350.48;1789157;80;21119;-85
2022/06/30 03:47:55;;;;;;;11.15;9.95;;;;;;;20.85;82.73;96353.88;1766374;80;21387;-85
2022/06/30 03:50:21;;;;;;;11.15;9.98;;;;;;;20.84;83.19;96356.24;1793442;79;21310;-87
2022/06/30 03:52:46;;;;;;;11.63;10.43;;;;;;;20.85;83.63;96359.16;1757804;79;21027;-86
2022/06/30 03:55:13;;;;;;;12.25;10.55;;;;;;;20.85;83.77;96368.41;1767514;79;21011;-86
2022/06/30 03:57:38;;;;;;;12.45;11.35;;;;;;;20.86;83.92;96373.95;1787241;79;21334;-86
2022/06/30 04:00:05;;;;;;;13.93;11.00;;;;;;;20.88;84.02;96375.83;1804103;78;20920;-86
2022/06/30 04:02:32;;;;;;;11.22;10.23;;;;;;;20.87;84.20;96375.02;1793330;78;21379;-87
2022/06/30 04:04:58;;;;;;;11.15;9.98;;;;;;;20.90;84.21;96376.38;1771896;79;20963;-86
2022/06/30 04:07:24;;;;;;;11.18;10.05;;;;;;;20.92;84.32;96372.95;1780795;78;20968;-86
2022/06/30 04:09:49;;;;;;;11.35;9.60;;;;;;;20.91;84.25;96369.52;1775015;79;20947;-86
2022/06/30 04:12:15;;;;;;;12.00;9.70;;;;;;;20.90;84.27;96373.73;1791707;79;20943;-86
2022/06/30 04:14:41;;;;;;;11.60;10.58;;;;;;;20.86;84.38;96370.80;1784597;79;20955;-86
2022/06/30 04:17:07;;;;;;;11.55;10.55;;;;;;;20.86;84.64;96366.83;1796405;78;21263;-86
2022/06/30 04:19:32;;;;;;;10.88;9.80;;;;;;;20.84;84.77;96368.13;1771798;79;20964;-86
2022/06/30 04:21:58;;;;;;;11.33;10.23;;;;;;;20.78;84.98;96380.97;1784961;79;20943;-85
2022/06/30 04:24:24;;;;;;;10.45;9.25;;;;;;;20.73;85.51;96384.88;1796008;79;21283;-85
2022/06/30 04:26:50;;;;;;;10.93;9.93;;;;;;;20.70;85.50;96386.17;1772939;78;21038;-86
2022/06/30 04:29:16;;;;;;;9.50;8.70;;;;;;;20.71;85.86;96389.09;1784924;79;20987;-86
2022/06/30 04:34:25;;;;;;;9.25;8.45;;;;;;;20.75;86.14;96390.19;1783777;78;21388;-85
2022/06/30 04:36:52;;;;;;;9.43;8.53;;;;;;;20.84;86.52;96390.05;1790666;79;20995;-86
2022/06/30 04:39:18;;;;;;;8.55;7.83;;;;;;;20.91;86.59;96388.01;1783055;79;21006;-86
2022/06/30 04:41:44;;;;;;;8.25;7.45;;;;;;;20.92;86.53;96389.60;1780889;79;21382;-86
2022/06/30 04:44:09;;;;;;;8.53;6.28;;;;;;;20.95;86.57;96393.59;1794600;78;21362;-86
2022/06/30 04:46:35;;;;;;;11.05;9.95;;;;;;;20.94;86.21;96395.44;1785899;78;20946;-86
2022/06/30 04:49:01;;;;;;;12.60;11.45;;;;;;;20.93;86.14;96389.88;1791535;78;20920;-86
2022/06/30 04:51:27;;;;;;;12.73;11.40;;;;;;;20.95;86.36;96390.95;1794798;78;20932;-86
2022/06/30 04:53:52;;;;;;;11.48;10.35;;;;;;;20.95;86.21;96383.82;1780127;78;21342;-86
2022/06/30 04:56:18;;;;;;;11.28;10.25;;;;;;;20.98;86.65;96376.72;1793491;79;21003;-86
2022/06/30 04:58:44;;;;;;;11.50;10.28;;;;;;;20.92;86.43;96379.56;1773853;78;21007;-86
2022/06/30 05:01:11;;;;;;;11.57;10.38;;;;;;;20.84;86.88;96382.13;1794837;79;20971;-86
2022/06/30 05:03:37;;;;;;;10.50;9.35;;;;;;;20.89;87.02;96374.78;1777183;79;20956;-86
2022/06/30 05:06:04;;;;;;;11.15;10.15;;;;;;;20.93;87.21;96375.88;1760718;80;20959;-86
2022/06/30 05:08:30;;;;;;;10.98;9.90;;;;;;;21.00;87.56;96367.78;1782559;79;21001;-87
2022/06/30 05:10:56;;;;;;;10.30;9.30;;;;;;;21.12;87.55;96369.20;1767352;79;20960;-86
2022/06/30 05:13:22;;;;;;;10.00;9.08;;;;;;;21.18;87.36;96364.80;1782756;79;21656;-86
2022/06/30 05:15:47;;;;;;;10.35;9.45;;;;;;;21.24;87.54;96357.18;1760788;79;20916;-86
2022/06/30 05:18:14;;;;;;;11.10;10.05;;;;;;;21.30;87.26;96361.48;1780643;79;20944;-86
2022/06/30 05:20:40;;;;;;;11.15;10.00;;;;;;;21.39;87.48;96359.20;1788582;80;21020;-86
2022/06/30 05:23:07;;;;;;;11.12;10.05;;;;;;;21.43;87.19;96367.70;1766508;79;21027;-86
2022/06/30 05:28:17;;;;;;;10.48;9.55;;;;;;;21.46;87.04;96362.43;1768971;79;20976;-86
2022/06/30 05:30:43;;;;;;;10.08;9.13;;;;;;;21.47;87.20;96356.89;1791636;79;21402;-86
2022/06/30 05:33:09;;;;;;;9.43;8.50;;;;;;;21.52;87.83;96364.89;1789458;79;21016;-85
2022/06/30 05:35:35;;;;;;;9.13;8.23;;;;;;;21.58;88.08;96357.27;1785917;79;21028;-86
2022/06/30 05:38:01;;;;;;;9.40;7.75;;;;;;;21.62;87.44;96361.52;1781061;79;21414;-86
2022/06/30 05:40:28;;;;;;;8.43;7.72;;;;;;;21.66;87.34;96365.27;1806006;77;20999;-85
2022/06/30 05:42:54;;;;;;;11.18;9.80;;;;;;;21.70;86.82;96359.75;1780096;78;20945;-86
2022/06/30 05:45:20;;;;;;;10.60;9.60;;;;;;;21.72;86.23;96364.78;1812428;78;20968;-86
2022/06/30 05:47:50;;;;;;;11.20;8.73;;;;;;;21.78;86.14;96365.08;1791775;80;21364;-86
2022/06/30 05:50:18;;;;;;;10.15;9.25;;;;;;;21.83;86.81;96359.84;1772751;80;20967;-86
2022/06/30 05:52:43;;;;;;;9.43;8.60;;;;;;;21.88;86.59;96362.52;1787331;79;20998;-86
2022/06/30 05:55:09;;;;;;;11.55;10.35;;;;;;;21.89;86.46;96364.12;1812986;79;21335;-87
2022/06/30 05:57:51;;;;;;;10.40;9.45;;;;;;;21.97;86.36;96361.55;1774073;79;20980;-86
2022/06/30 06:00:19;;;;;;;12.37;11.28;;;;;;;22.05;86.25;96363.73;1772625;79;21033;-86
2022/06/30 06:02:46;;;;;;;11.65;10.55;;;;;;;22.15;86.15;96369.10;1807110;78;20961;-86
2022/06/30 06:05:12;;;;;;;12.20;10.98;;;;;;;22.24;86.05;96366.75;1773420;80;20975;-86
2022/06/30 06:07:38;;;;;;;12.50;11.10;;;;;;;22.33;85.83;96375.83;1773295;79;21019;-86
2022/06/30 06:10:04;;;;;;;12.88;11.68;;;;;;;22.44;84.19;96376.92;1774727;79;20935;-86
2022/06/30 06:12:30;;;;;;;12.03;10.95;;;;;;;22.44;84.19;96376.92;1786173;79;20971;-85
2022/06/30 06:14:55;;;;;;;13.03;11.63;;;;;;;22.50;84.24;96374.33;1790069;78;21307;-86
2022/06/30 06:17:21;;;;;;;11.30;10.20;;;;;;;22.55;83.73;96378.31;1775114;80;20975;-86
2022/06/30 06:19:47;;;;;;;11.57;10.45;;;;;;;22.60;83.65;96383.09;1762596;79;20948;-85
2022/06/30 06:22:12;;;;;;;11.70;10.60;;;;;;;22.66;83.42;96380.77;1789291;78;21027;-86
2022/06/30 06:24:38;;;;;;;11.15;10.18;;;;;;;22.72;82.74;96382.37;1781285;79;20940;-86
2022/06/30 06:27:05;;;;;;;12.03;10.80;;;;;;;22.76;81.87;96385.29;1785979;78;21361;-85
2022/06/30 06:29:30;;;;;;;14.18;12.78;;;;;;;22.83;81.96;96381.13;1800450;78;20971;-86
2022/06/30 06:31:56;;;;;;;13.15;10.68;;;;;;;22.89;81.67;96377.42;1778138;80;21418;-85
2022/06/30 06:34:22;;;;;;;12.00;10.85;;;;;;;22.91;81.43;96372.66;1781734;78;21035;-86
2022/06/30 06:36:48;;;;;;;12.68;11.45;;;;;;;22.96;81.29;96375.35;1773324;78;20995;-86
2022/06/30 06:39:14;;;;;;;11.68;10.48;;;;;;;23.04;80.94;96374.83;1771360;78;22156;-85
2022/06/30 06:41:39;;;;;;;11.45;10.10;;;;;;;23.12;80.87;96376.98;1771347;78;21034;-86
2022/06/30 06:44:05;;;;;;;12.70;11.60;;;;;;;23.23;80.98;96376.47;1780694;78;20955;-85
2022/06/30 06:46:31;;;;;;;11.57;10.43;;;;;;;23.31;80.83;96381.27;1792881;80;21038;-86
2022/06/30 06:49:03;;;;;;;13.13;11.80;;;;;;;23.36;80.42;96387.38;1789933;78;21008;-87
2022/06/30 06:51:28;;;;;;;11.20;10.18;;;;;;;23.41;79.73;96390.55;1781772;79;21031;-86
2022/06/30 06:53:55;;;;;;;12.18;10.58;;;;;;;23.48;81.13;96387.66;1772104;79;21063;-86
2022/06/30 06:56:20;;;;;;;11.95;10.70;;;;;;;23.48;80.59;96392.44;1795192;80;21414;-86
2022/06/30 06:58:46;;;;;;;11.65;10.50;;;;;;;23.57;80.44;96387.42;1794443;79;20932;-87
2022/06/30 07:01:12;;;;;;;11.33;10.30;;;;;;;23.68;80.76;96386.91;1793720;78;21360;-86
2022/06/30 07:03:38;;;;;;;11.53;10.40;;;;;;;23.71;81.16;96389.03;1770244;79;21353;-86
2022/06/30 07:06:04;;;;;;;10.60;9.60;;;;;;;23.75;81.02;96385.58;1765609;79;20970;-86
2022/06/30 07:08:30;;;;;;;12.68;11.38;;;;;;;23.83;81.44;96390.90;1810911;79;20905;-85
2022/06/30 07:10:57;;;;;;;13.85;11.33;;;;;;;23.92;80.03;96395.42;1798164;78;21379;-86
2022/06/30 07:13:24;;;;;;;13.22;10.93;;;;;;;24.01;80.29;96393.02;1770176;80;20974;-86
2022/06/30 07:15:50;;;;;;;12.55;11.33;;;;;;;24.07;80.06;96388.48;1767906;79;21027;-86
2022/06/30 07:18:18;;;;;;;13.60;11.35;;;;;;;24.12;80.13;96391.95;1765949;80;21087;-86
2022/06/30 07:20:44;;;;;;;11.70;10.70;;;;;;;24.19;80.28;96384.50;1766528;79;21378;-86
2022/06/30 07:23:09;;;;;;;12.53;11.43;;;;;;;24.27;79.68;96381.84;1765659;79;21039;-86
2022/06/30 07:25:35;;;;;;;13.93;12.43;;;;;;;24.36;79.84;96373.61;1765783;78;20974;-86
2022/06/30 07:28:03;;;;;;;13.35;12.05;;;;;;;24.47;78.96;96373.86;1784362;78;21025;-86
2022/06/30 07:30:28;;;;;;;14.90;13.43;;;;;;;24.59;78.10;96374.09;1769875;79;21047;-86
2022/06/30 07:32:54;;;;;;;13.72;12.40;;;;;;;24.72;77.78;96370.84;1773770;79;21015;-86
2022/06/30 07:35:21;;;;;;;16.10;14.55;;;;;;;24.81;78.30;96375.87;1767289;80;21075;-86
2022/06/30 07:37:46;;;;;;;16.12;14.53;;;;;;;24.89;77.49;96377.15;1786815;79;21445;-86
2022/06/30 07:40:13;;;;;;;13.20;11.93;;;;;;;25.01;76.86;96373.14;1785174;79;21379;-86
2022/06/30 07:42:39;;;;;;;15.63;14.03;;;;;;;25.14;77.93;96375.73;1778868;79;21039;-86
2022/06/30 07:45:06;;;;;;;12.93;11.68;;;;;;;25.22;76.90;96374.36;1784198;78;21455;-86
2022/06/30 07:47:32;;;;;;;13.48;12.18;;;;;;;25.25;77.35;96363.98;1787251;78;21009;-86
2022/06/30 07:49:58;;;;;;;16.37;14.55;;;;;;;25.30;77.68;96367.14;1791612;78;21347;-86
2022/06/30 07:52:24;;;;;;;16.75;15.03;;;;;;;25.33;77.00;96366.59;1809898;78;21020;-86
2022/06/30 07:54:51;;;;;;;17.35;15.55;;;;;;;25.42;77.13;96368.94;1789172;79;21038;-86
2022/06/30 07:57:20;;;;;;;14.35;12.85;;;;;;;25.49;76.92;96366.74;1787401;78;20979;-86
2022/06/30 07:59:46;;;;;;;13.05;11.78;;;;;;;25.60;76.83;96368.27;1780606;78;21035;-86
2022/06/30 08:02:12;;;;;;;15.35;13.90;;;;;;;25.68;77.66;96371.69;1811033;78;20962;-86
2022/06/30 08:04:39;;;;;;;18.65;16.82;;;;;;;25.75;77.89;96367.93;1801992;78;20916;-86
2022/06/30 08:07:05;;;;;;;18.62;16.55;;;;;;;25.83;76.36;96367.31;1771730;79;21078;-86
2022/06/30 08:09:31;;;;;;;16.93;15.20;;;;;;;25.92;75.33;96369.65;1802398;78;21378;-86
2022/06/30 08:11:57;;;;;;;16.90;13.93;;;;;;;26.05;75.55;96367.67;1809202;78;21064;-85
2022/06/30 08:14:23;;;;;;;14.95;13.50;;;;;;;26.14;74.97;96381.95;1781056;78;21027;-86
2022/06/30 08:16:49;;;;;;;18.27;16.17;;;;;;;26.22;76.09;96378.70;1791892;79;20935;-86
2022/06/30 08:19:16;;;;;;;19.57;17.05;;;;;;;26.32;75.80;96383.11;1775089;78;20955;-85
2022/06/30 08:21:42;;;;;;;18.45;16.73;;;;;;;26.41;74.77;96388.13;1792971;78;21009;-86
2022/06/30 08:24:08;;;;;;;19.45;17.55;;;;;;;26.56;74.91;96380.51;1774919;78;21070;-86
2022/06/30 08:26:33;;;;;;;21.50;19.30;;;;;;;26.70;74.50;96387.29;1775282;78;21014;-85
2022/06/30 08:28:59;;;;;;;21.23;18.80;;;;;;;26.77;73.99;96385.86;1787108;78;20970;-85
2022/06/30 08:31:25;;;;;;;16.40;14.85;;;;;;;26.93;74.49;96383.80;1785297;78;21059;-86
2022/06/30 08:33:52;;;;;;;19.67;17.07;;;;;;;27.08;74.71;96381.52;1772494;78;20975;-86
2022/06/30 08:36:18;;;;;;;18.17;16.40;;;;;;;27.14;74.63;96373.69;1774913;78;20959;-86
2022/06/30 08:38:44;;;;;;;20.02;18.00;;;;;;;27.32;74.85;96372.89;1781802;78;21466;-85
2022/06/30 08:43:54;;;;;;;20.30;18.40;;;;;;;27.48;72.93;96380.94;1789982;78;20999;-84
2022/06/30 08:46:21;;;;;;;17.73;16.07;;;;;;;27.58;71.09;96379.21;1777644;78;20959;-84
2022/06/30 08:48:46;;;;;;;19.12;17.12;;;;;;;27.69;72.59;96375.34;1801742;78;20967;-84
2022/06/30 08:51:14;;;;;;;19.77;17.87;;;;;;;27.80;72.86;96378.88;1778093;79;20974;-84
2022/06/30 08:53:52;;;;;;;19.45;17.45;;;;;;;27.94;72.19;96384.80;1774258;79;21334;-84
2022/06/30 08:56:19;;;;;;;17.30;15.80;;;;;;;28.04;71.51;96387.31;1798835;79;21006;-84
2022/06/30 08:58:45;;;;;;;18.95;17.35;;;;;;;28.13;72.00;96379.41;1797604;79;20991;-84
2022/06/30 09:01:11;;;;;;;17.65;16.02;;;;;;;28.21;70.55;96385.42;1778450;78;20982;-84
2022/06/30 09:03:38;;;;;;;18.57;16.80;;;;;;;28.34;70.03;96381.48;1748853;81;20939;-84
2022/06/30 09:06:06;;;;;;;18.40;16.67;;;;;;;28.41;69.47;96379.74;1775235;79;20970;-83
2022/06/30 09:08:32;;;;;;;19.42;16.37;;;;;;;28.54;70.60;96381.64;1775090;78;20951;-84
2022/06/30 09:10:57;;;;;;;17.95;16.25;;;;;;;28.61;69.92;96376.67;1774520;79;20915;-83
2022/06/30 09:13:25;;;;;;;17.00;15.40;;;;;;;28.73;70.13;96380.20;1776906;78;21018;-84
2022/06/30 09:15:51;;;;;;;17.50;15.78;;;;;;;28.81;69.24;96385.41;1783285;78;20967;-83
2022/06/30 09:18:25;;;;;;;18.85;16.85;;;;;;;28.88;68.40;96372.45;1778709;78;20971;-83
2022/06/30 09:20:51;;;;;;;18.10;16.32;;;;;;;28.96;69.29;96374.41;1775863;78;21022;-83
2022/06/30 09:23:29;;;;;;;16.02;14.38;;;;;;;29.04;68.12;96370.25;1783169;78;20963;-83
2022/06/30 09:25:58;;;;;;;15.80;14.43;;;;;;;29.04;65.67;96376.39;1775348;79;21033;-83
2022/06/30 09:28:50;;;;;;;16.27;14.83;;;;;;;29.01;66.70;96367.64;1788294;78;21078;-84
2022/06/30 09:31:18;;;;;;;;;;;;;;;29.01;66.94;96366.30;1783708;78;21038;-84
2022/06/30 09:33:47;;;;;;;16.05;14.55;;;;;;;29.09;67.77;96365.58;1791466;79;20340;-83
2022/06/30 09:36:26;;;;;;;15.45;14.03;;;;;;;29.14;66.65;96372.17;1802765;78;21291;-83
2022/06/30 09:39:06;;;;;;;17.23;15.72;;;;;;;29.24;67.11;96363.12;1787460;78;21418;-83
2022/06/30 09:41:35;;;;;;;16.97;15.48;;;;;;;29.24;66.29;96361.23;1784901;78;21291;-84
2022/06/30 09:44:06;;;;;;;16.42;14.93;;;;;;;29.29;65.49;96357.13;1794958;79;20974;-84
2022/06/30 09:46:36;;;;;;;15.78;14.40;;;;;;;29.32;67.13;96363.76;1778830;79;20999;-84
2022/06/30 09:49:00;;;;;;;17.30;14.33;;;;;;;29.34;65.25;96359.44;1799781;79;20963;-84
2022/06/30 09:51:26;;;;;;;15.25;13.80;;;;;;;29.31;63.66;96352.81;1775444;79;20940;-83
2022/06/30 09:54:07;;;;;;;15.75;14.35;;;;;;;29.40;64.80;96360.89;1752446;79;20954;-84
2022/06/30 09:56:34;;;;;;;16.40;14.78;;;;;;;29.47;64.59;96353.28;1805798;79;20987;-83
2022/06/30 09:59:00;;;;;;;16.25;14.93;;;;;;;29.61;65.48;96346.52;1797559;78;21028;-84
2022/06/30 10:01:25;;;;;;;16.12;14.65;;;;;;;29.69;66.11;96352.49;1776336;78;21413;-83
2022/06/30 10:03:59;;;;;;;14.93;13.53;;;;;;;29.69;64.57;96351.16;1779028;79;20995;-83
2022/06/30 10:06:26;;;;;;;15.95;14.50;;;;;;;29.72;64.04;96344.63;1797221;78;21375;-83
2022/06/30 10:08:55;;;;;;;14.93;13.50;;;;;;;29.79;64.47;96352.26;1782636;79;20984;-84
2022/06/30 10:11:21;;;;;;;15.23;13.72;;;;;;;29.83;63.87;96350.55;1774797;78;20952;-84
2022/06/30 10:13:48;;;;;;;16.45;15.00;;;;;;;29.85;62.81;96342.98;1801746;79;20958;-83
2022/06/30 10:16:16;;;;;;;15.80;14.40;;;;;;;29.89;63.39;96344.74;1789685;79;20955;-83
2022/06/30 10:18:41;;;;;;;15.83;14.25;;;;;;;29.95;61.21;96347.31;1795897;79;20998;-83
2022/06/30 10:21:10;;;;;;;14.98;13.62;;;;;;;29.94;61.51;96346.52;1796661;79;21339;-84
2022/06/30 10:23:36;;;;;;;15.75;14.33;;;;;;;29.93;61.56;96340.11;1815184;79;20952;-84
2022/06/30 10:26:06;;;;;;;15.20;13.83;;;;;;;29.98;61.52;96338.66;1803843;79;20990;-84
2022/06/30 10:28:32;;;;;;;13.50;12.30;;;;;;;30.05;61.95;96340.38;1794690;78;21009;-83
2022/06/30 10:31:20;;;;;;;14.75;13.35;;;;;;;30.08;61.67;96335.73;1798172;78;20926;-83
2022/06/30 10:34:20;;;;;;;14.00;12.60;;;;;;;30.21;62.65;96330.05;1794310;79;21311;-83
2022/06/30 10:37:07;;;;;;;12.78;11.78;;;;;;;30.25;60.95;96337.16;1788707;78;21000;-84
2022/06/30 10:39:52;;;;;;;13.70;12.28;;;;;;;30.30;61.57;96330.34;1796384;79;21455;-84
2022/06/30 10:42:49;;;;;;;13.00;11.68;;;;;;;30.33;59.56;96330.27;1796544;79;20958;-84
2022/06/30 10:45:33;;;;;;;12.58;11.38;;;;;;;30.37;59.85;96333.91;1821277;77;21020;-83
2022/06/30 10:48:08;;;;;;;13.55;12.23;;;;;;;30.48;59.97;96330.64;1780741;78;21001;-84
2022/06/30 10:50:39;;;;;;;12.53;11.33;;;;;;;30.54;59.61;96324.58;1795427;78;21015;-84
2022/06/30 10:53:09;;;;;;;;;;;;;;;30.54;59.51;96324.58;1793335;78;21018;-83
2022/06/30 10:55:54;;;;;;;11.57;10.55;;;;;;;30.53;57.71;96318.98;1788799;78;20115;-84
2022/06/30 10:58:21;;;;;;;12.68;11.48;;;;;;;30.53;58.81;96320.32;1779851;78;21042;-84
2022/06/30 11:01:04;;;;;;;11.73;10.75;;;;;;;30.59;59.84;96318.27;1792597;79;21395;-84
2022/06/30 11:03:37;;;;;;;13.05;11.93;;;;;;;30.59;58.06;96317.75;1793042;78;21422;-84
2022/06/30 11:06:11;;;;;;;12.33;11.12;;;;;;;30.61;60.43;96314.20;1779693;78;20971;-83
2022/06/30 11:08:47;;;;;;;12.82;11.48;;;;;;;30.67;60.64;96308.95;1777353;79;21409;-83
2022/06/30 11:11:29;;;;;;;12.33;11.22;;;;;;;30.68;60.24;96313.77;1783885;79;21339;-84
2022/06/30 11:14:10;;;;;;;11.15;10.08;;;;;;;30.75;59.52;96308.72;1783584;79;21386;-84
2022/06/30 11:16:37;;;;;;;10.63;9.63;;;;;;;30.84;59.63;96309.54;1779123;79;20986;-84
2022/06/30 11:19:04;;;;;;;10.70;9.83;;;;;;;30.84;58.69;96311.44;1779075;79;20927;-85
2022/06/30 11:21:33;;;;;;;11.20;10.05;;;;;;;30.93;57.23;96306.33;1783985;79;21425;-84
2022/06/30 11:24:02;;;;;;;10.43;9.48;;;;;;;31.00;58.37;96302.62;1787881;79;20987;-84
2022/06/30 11:29:17;;;;;;;11.73;8.20;;;;;;;31.12;56.73;96295.30;1780440;79;21069;-83
2022/06/30 11:31:43;;;;;;;9.93;8.25;;;;;;;31.09;55.88;96300.51;1774557;79;21400;-84
2022/06/30 11:34:16;;;;;;;10.58;8.83;;;;;;;31.16;55.78;96294.89;1774516;79;21085;-84
2022/06/30 11:36:43;;;;;;;9.63;8.63;;;;;;;31.23;55.73;96295.23;1774540;79;21002;-83
2022/06/30 11:39:14;;;;;;;9.90;9.00;;;;;;;31.22;56.14;96272.17;1774421;79;20975;-84
2022/06/30 11:41:59;;;;;;;9.63;8.73;;;;;;;31.34;57.59;96284.97;1774069;79;21067;-84